Utica, NY (13501)

7:17 AM EDT on August 28, 2014 (GMT -0400)
South Utica NY | Change Station
CLOSE
Current Station
Personal Weather Station
Location: Utica, NY
Elevation: 633 ft
Nearby Weather Stations

Elev 633 ft 43.08 °N, 75.26 °W | Updated 11 minutes ago

Overcast
Overcast
61.1 °F
Feels Like 61.1 °F
N
1.0
Wind Variable Wind from NE
Gusts 6.0 mph

Today
High -- | Low -- °F
--% Chance of Precip.
Yesterday
High -- | Low -- °F
Precip. -- in
6:20 AM 7:42 PM
Waxing Crescent, 7% visible
Pressure 29.97 in
Visibility 10.0 miles
Clouds Mostly Cloudy 700 ft
Mostly Cloudy 1200 ft
Overcast 3800 ft
Dew Point 58 °F
Humidity 89%
Rainfall 0.00 in
Snow Depth Not available.
UV 0 out of 12
Pollen 8.40 out of 12
Ozone Good
PM2.5 Good
Flu Activity Not available.
METAR KRME 281053Z 27004KT 10SM BKN007 BKN012 OVC038 16/14 A2998 RMK AO2 SLP149 T01560144

More Conditions Fewer Conditions

Pressure 29.97 in
Visibility 10.0 miles
Clouds Mostly Cloudy 700 ft
Mostly Cloudy 1200 ft
Overcast 3800 ft
Dew Point 58 °F
Humidity 89%
Rainfall 0.00 in
Snow Depth Not available.
UV 0 out of 12
Pollen 8.40 out of 12
Ozone Good
PM2.5 Good
Flu Activity Not available.
METAR KRME 281053Z 27004KT 10SM BKN007 BKN012 OVC038 16/14 A2998 RMK AO2 SLP149 T01560144

More Conditions Fewer Conditions

10-Day Weather Forecast

Almanac

Astronomy

Aug. 28, 2014 Rise Set
Actual Time 6:20 AM EDT 7:42 PM EDT
Civil Twilight 5:51 AM EDT 8:12 PM EDT
Nautical Twilight 5:15 AM EDT 8:47 PM EDT
Astronomical Twilight 4:37 AM EDT 9:25 PM EDT
Moon 9:16 AM EDT 8:59 PM EDT
Length of Visible Light 14h 20m
Length of Day
13h 21m
Tomorrow will be 2m 46s shorter.
Waxing Crescent, 7% of the Moon is Illuminated
Today
Waxing Crescent
Sep 2
First Quarter
Sep 8
Full
Sep 15
Last Quarter
Sep 24
New

Today's Extremes

State Highs State Lows

Community

WunderPhotos

Upload Photos

1,747,923 photos uploaded!

Nearby

Air Quality

  Air Quality AQ Index Pollutant
Yesterday Good
PM2.5
Yesterday Good
OZONE
Current Good
OZONE
Current Good
PM2.5
Thursday Good
OZONE
Thursday Good
PM2.5

Snow Depth

Station Depth Elevation
No new snow has been reported.

Earthquake Activity

City Distance Mag. Time & Date
No recent earthquake activity has been reported nearby.
Minimum magnitude displayed is 2.5.

Coastal Water Temperatures

Place Temperature
No Stations Reporting

Nearby Weather Stations